sensor_id;sensor_type;location;lat;lon;timestamp;pressure;altitude;pressure_sealevel;temperature;humidity
58757;BME280;44527;47.460;19.016;2023-04-20T00:01:18;100180.06;;;8.41;97.99
58757;BME280;44527;47.460;19.016;2023-04-20T00:04:21;100182.69;;;8.41;97.55
58757;BME280;44527;47.460;19.016;2023-04-20T00:07:23;100177.84;;;8.49;97.01
58757;BME280;44527;47.460;19.016;2023-04-20T00:10:26;100180.72;;;8.44;97.57
58757;BME280;44527;47.460;19.016;2023-04-20T00:13:28;100173.94;;;8.42;97.95
58757;BME280;44527;47.460;19.016;2023-04-20T00:16:31;100180.16;;;8.54;97.50
58757;BME280;44527;47.460;19.016;2023-04-20T00:19:33;100184.72;;;8.36;98.57
58757;BME280;44527;47.460;19.016;2023-04-20T00:22:36;100173.16;;;8.40;98.44
58757;BME280;44527;47.460;19.016;2023-04-20T00:25:38;100182.34;;;8.61;96.98
58757;BME280;44527;47.460;19.016;2023-04-20T00:28:40;100182.91;;;8.66;96.44
58757;BME280;44527;47.460;19.016;2023-04-20T00:31:43;100181.97;;;8.82;96.29
58757;BME280;44527;47.460;19.016;2023-04-20T00:34:47;100176.06;;;8.78;95.67
58757;BME280;44527;47.460;19.016;2023-04-20T00:37:50;100170.38;;;8.86;95.82
58757;BME280;44527;47.460;19.016;2023-04-20T00:40:56;100170.38;;;8.86;95.18
58757;BME280;44527;47.460;19.016;2023-04-20T00:43:58;100165.53;;;8.94;94.87
58757;BME280;44527;47.460;19.016;2023-04-20T00:47:01;100167.56;;;9.03;94.32
58757;BME280;44527;47.460;19.016;2023-04-20T00:50:03;100164.66;;;8.93;94.26
58757;BME280;44527;47.460;19.016;2023-04-20T00:53:06;100168.72;;;8.85;94.83
58757;BME280;44527;47.460;19.016;2023-04-20T00:56:09;100170.09;;;8.76;95.76
58757;BME280;44527;47.460;19.016;2023-04-20T00:59:14;100164.47;;;8.96;94.62
58757;BME280;44527;47.460;19.016;2023-04-20T01:02:17;100170.00;;;9.06;93.43
58757;BME280;44527;47.460;19.016;2023-04-20T01:05:20;100169.25;;;8.90;93.30
58757;BME280;44527;47.460;19.016;2023-04-20T01:08:25;100162.63;;;8.70;95.45
58757;BME280;44527;47.460;19.016;2023-04-20T01:11:29;100163.09;;;8.77;95.50
58757;BME280;44527;47.460;19.016;2023-04-20T01:14:31;100154.97;;;8.67;95.73
58757;BME280;44527;47.460;19.016;2023-04-20T01:17:34;100155.19;;;8.34;99.16
58757;BME280;44527;47.460;19.016;2023-04-20T01:20:39;100160.69;;;8.29;99.96
58757;BME280;44527;47.460;19.016;2023-04-20T01:23:41;100157.41;;;8.25;99.82
58757;BME280;44527;47.460;19.016;2023-04-20T01:26:44;100161.22;;;8.20;100.00
58757;BME280;44527;47.460;19.016;2023-04-20T01:29:46;100157.38;;;8.56;98.65
58757;BME280;44527;47.460;19.016;2023-04-20T01:32:48;100156.75;;;8.22;100.00
58757;BME280;44527;47.460;19.016;2023-04-20T01:35:51;100157.47;;;8.10;100.00
58757;BME280;44527;47.460;19.016;2023-04-20T01:38:55;100159.97;;;7.97;100.00
58757;BME280;44527;47.460;19.016;2023-04-20T01:41:58;100169.13;;;8.04;100.00
58757;BME280;44527;47.460;19.016;2023-04-20T01:45:00;100166.22;;;7.94;100.00
58757;BME280;44527;47.460;19.016;2023-04-20T01:48:03;100157.44;;;7.95;100.00
58757;BME280;44527;47.460;19.016;2023-04-20T01:51:06;100162.22;;;7.73;100.00
58757;BME280;44527;47.460;19.016;2023-04-20T01:54:10;100159.03;;;7.68;100.00
58757;BME280;44527;47.460;19.016;2023-04-20T01:57:13;100159.47;;;7.60;100.00
58757;BME280;44527;47.460;19.016;2023-04-20T02:00:16;100164.75;;;7.74;100.00
58757;BME280;44527;47.460;19.016;2023-04-20T02:03:18;100159.37;;;7.92;100.00
58757;BME280;44527;47.460;19.016;2023-04-20T02:06:21;100159.56;;;7.89;100.00
58757;BME280;44527;47.460;19.016;2023-04-20T02:09:23;100166.31;;;7.93;100.00
58757;BME280;44527;47.460;19.016;2023-04-20T02:12:26;100163.97;;;7.88;100.00
58757;BME280;44527;47.460;19.016;2023-04-20T02:15:28;100166.22;;;7.94;100.00
58757;BME280;44527;47.460;19.016;2023-04-20T02:18:31;100164.72;;;7.90;100.00
58757;BME280;44527;47.460;19.016;2023-04-20T02:21:33;100168.16;;;7.91;100.00
58757;BME280;44527;47.460;19.016;2023-04-20T02:24:36;100170.56;;;8.10;100.00
58757;BME280;44527;47.460;19.016;2023-04-20T02:27:39;100170.44;;;7.97;100.00
58757;BME280;44527;47.460;19.016;2023-04-20T02:30:41;100168.75;;;7.96;100.00
58757;BME280;44527;47.460;19.016;2023-04-20T02:33:45;100166.22;;;7.94;100.00
58757;BME280;44527;47.460;19.016;2023-04-20T02:36:49;100164.72;;;7.90;100.00
58757;BME280;44527;47.460;19.016;2023-04-20T02:39:51;100169.72;;;8.09;100.00
58757;BME280;44527;47.460;19.016;2023-04-20T02:42:53;100168.66;;;7.97;100.00
58757;BME280;44527;47.460;19.016;2023-04-20T02:45:56;100171.44;;;7.94;100.00
58757;BME280;44527;47.460;19.016;2023-04-20T02:48:58;100160.91;;;7.66;100.00
58757;BME280;44527;47.460;19.016;2023-04-20T02:52:02;100169.44;;;7.53;100.00
58757;BME280;44527;47.460;19.016;2023-04-20T02:55:05;100178.19;;;7.52;100.00
58757;BME280;44527;47.460;19.016;2023-04-20T02:58:08;100176.41;;;7.53;100.00
58757;BME280;44527;47.460;19.016;2023-04-20T03:01:12;100173.13;;;7.49;100.00
58757;BME280;44527;47.460;19.016;2023-04-20T03:04:14;100170.47;;;7.35;100.00
58757;BME280;44527;47.460;19.016;2023-04-20T03:07:18;100177.09;;;7.56;100.00
58757;BME280;44527;47.460;19.016;2023-04-20T03:10:20;100177.31;;;7.68;100.00
58757;BME280;44527;47.460;19.016;2023-04-20T03:13:24;100174.91;;;7.49;100.00
58757;BME280;44527;47.460;19.016;2023-04-20T03:16:26;100179.19;;;7.66;100.00
58757;BME280;44527;47.460;19.016;2023-04-20T03:19:29;100179.09;;;7.97;100.00
58757;BME280;44527;47.460;19.016;2023-04-20T03:22:31;100178.69;;;8.05;100.00
58757;BME280;44527;47.460;19.016;2023-04-20T03:25:34;100180.34;;;8.06;100.00
58757;BME280;44527;47.460;19.016;2023-04-20T03:28:37;100174.94;;;8.09;99.69
58757;BME280;44527;47.460;19.016;2023-04-20T03:31:40;100174.00;;;8.10;99.08
58757;BME280;44527;47.460;19.016;2023-04-20T03:34:42;100178.09;;;8.00;99.65
58757;BME280;44527;47.460;19.016;2023-04-20T03:37:45;100178.69;;;8.05;99.89
58757;BME280;44527;47.460;19.016;2023-04-20T03:40:47;100183.63;;;8.10;100.00
58757;BME280;44527;47.460;19.016;2023-04-20T03:43:50;100179.69;;;8.02;100.00
58757;BME280;44527;47.460;19.016;2023-04-20T03:46:52;100178.94;;;8.00;100.00
58757;BME280;44527;47.460;19.016;2023-04-20T03:49:54;100185.75;;;7.73;100.00
58757;BME280;44527;47.460;19.016;2023-04-20T03:52:56;100193.37;;;7.92;100.00
58757;BME280;44527;47.460;19.016;2023-04-20T03:55:59;100191.47;;;8.10;100.00
58757;BME280;44527;47.460;19.016;2023-04-20T03:59:02;100192.56;;;8.36;98.96
58757;BME280;44527;47.460;19.016;2023-04-20T04:02:04;100199.53;;;8.51;97.86
58757;BME280;44527;47.460;19.016;2023-04-20T04:05:07;100199.34;;;8.24;99.13
58757;BME280;44527;47.460;19.016;2023-04-20T04:08:10;100200.50;;;8.04;100.00
58757;BME280;44527;47.460;19.016;2023-04-20T04:11:13;100196.81;;;7.92;100.00
58757;BME280;44527;47.460;19.016;2023-04-20T04:14:15;100190.16;;;8.02;100.00
58757;BME280;44527;47.460;19.016;2023-04-20T04:17:17;100199.59;;;7.89;100.00
58757;BME280;44527;47.460;19.016;2023-04-20T04:20:19;100208.50;;;7.87;100.00
58757;BME280;44527;47.460;19.016;2023-04-20T04:23:22;100201.47;;;7.71;100.00
58757;BME280;44527;47.460;19.016;2023-04-20T04:26:25;100203.56;;;7.96;100.00
58757;BME280;44527;47.460;19.016;2023-04-20T04:29:28;100208.03;;;7.94;100.00
58757;BME280;44527;47.460;19.016;2023-04-20T04:32:30;100206.06;;;8.28;98.63
58757;BME280;44527;47.460;19.016;2023-04-20T04:35:36;100204.97;;;8.32;96.69
58757;BME280;44527;47.460;19.016;2023-04-20T04:38:39;100204.62;;;8.38;95.86
58757;BME280;44527;47.460;19.016;2023-04-20T04:41:42;100204.41;;;8.57;94.32
58757;BME280;44527;47.460;19.016;2023-04-20T04:44:46;100197.94;;;8.63;94.06
58757;BME280;44527;47.460;19.016;2023-04-20T04:47:50;100208.62;;;8.88;92.61
58757;BME280;44527;47.460;19.016;2023-04-20T04:50:54;100211.50;;;9.12;91.55
58757;BME280;44527;47.460;19.016;2023-04-20T04:53:58;100211.62;;;9.52;88.09
58757;BME280;44527;47.460;19.016;2023-04-20T04:57:05;100209.91;;;10.05;84.39
58757;BME280;44527;47.460;19.016;2023-04-20T05:00:11;100216.00;;;10.71;80.87
58757;BME280;44527;47.460;19.016;2023-04-20T05:03:17;100212.34;;;11.97;76.30
58757;BME280;44527;47.460;19.016;2023-04-20T05:06:29;100217.03;;;13.64;67.39
58757;BME280;44527;47.460;19.016;2023-04-20T05:09:35;100228.03;;;14.75;62.44
58757;BME280;44527;47.460;19.016;2023-04-20T05:12:39;100227.41;;;15.23;60.08
58757;BME280;44527;47.460;19.016;2023-04-20T05:15:44;100229.81;;;16.44;56.15
58757;BME280;44527;47.460;19.016;2023-04-20T05:18:50;100230.41;;;17.50;52.83
58757;BME280;44527;47.460;19.016;2023-04-20T05:21:53;100233.53;;;17.91;50.55
58757;BME280;44527;47.460;19.016;2023-04-20T05:25:00;100241.78;;;18.24;50.48
58757;BME280;44527;47.460;19.016;2023-04-20T06:16:33;100254.59;;;24.08;34.82
58757;BME280;44527;47.460;19.016;2023-04-20T06:19:36;100257.53;;;24.35;33.34
58757;BME280;44527;47.460;19.016;2023-04-20T06:22:41;100259.00;;;23.73;34.05
58757;BME280;44527;47.460;19.016;2023-04-20T06:25:46;100262.03;;;24.06;34.28
58757;BME280;44527;47.460;19.016;2023-04-20T06:28:48;100262.03;;;24.06;33.54
58757;BME280;44527;47.460;19.016;2023-04-20T06:31:53;100263.25;;;24.25;34.57
58757;BME280;44527;47.460;19.016;2023-04-20T06:34:55;100261.25;;;25.60;32.00
58757;BME280;44527;47.460;19.016;2023-04-20T06:37:57;100275.28;;;26.43;29.94
58757;BME280;44527;47.460;19.016;2023-04-20T06:41:00;100266.12;;;25.43;32.12
58757;BME280;44527;47.460;19.016;2023-04-20T06:44:05;100268.41;;;25.94;31.88
58757;BME280;44527;47.460;19.016;2023-04-20T06:47:07;100266.63;;;26.68;29.25
58757;BME280;44527;47.460;19.016;2023-04-20T06:50:09;100264.75;;;26.42;29.48
58757;BME280;44527;47.460;19.016;2023-04-20T06:53:11;100269.50;;;26.86;29.81
58757;BME280;44527;47.460;19.016;2023-04-20T06:56:14;100268.06;;;26.77;29.51
58757;BME280;44527;47.460;19.016;2023-04-20T06:59:16;100273.44;;;26.84;29.04
58757;BME280;44527;47.460;19.016;2023-04-20T07:02:20;100272.00;;;26.48;29.71
58757;BME280;44527;47.460;19.016;2023-04-20T07:05:22;100280.00;;;26.08;29.98
58757;BME280;44527;47.460;19.016;2023-04-20T07:08:24;100272.38;;;26.31;29.08
58757;BME280;44527;47.460;19.016;2023-04-20T07:11:27;100276.56;;;26.61;28.04
58757;BME280;44527;47.460;19.016;2023-04-20T07:14:29;100283.16;;;26.11;28.42
58757;BME280;44527;47.460;19.016;2023-04-20T07:17:31;100270.69;;;25.90;29.95
58757;BME280;44527;47.460;19.016;2023-04-20T07:20:34;100270.75;;;26.24;27.61
58757;BME280;44527;47.460;19.016;2023-04-20T07:23:36;100278.34;;;25.94;29.77
58757;BME280;44527;47.460;19.016;2023-04-20T07:26:38;100274.87;;;26.26;28.03
58757;BME280;44527;47.460;19.016;2023-04-20T07:29:40;100265.56;;;26.69;27.44
58757;BME280;44527;47.460;19.016;2023-04-20T07:32:42;100272.56;;;25.97;29.67
58757;BME280;44527;47.460;19.016;2023-04-20T07:35:44;100283.44;;;25.75;30.54
58757;BME280;44527;47.460;19.016;2023-04-20T07:38:47;100281.97;;;25.79;28.15
58757;BME280;44527;47.460;19.016;2023-04-20T07:41:50;100276.38;;;24.63;30.62
58757;BME280;44527;47.460;19.016;2023-04-20T07:44:52;100276.94;;;23.73;31.90
58757;BME280;44527;47.460;19.016;2023-04-20T07:47:54;100271.06;;;24.05;31.25
58757;BME280;44527;47.460;19.016;2023-04-20T07:50:58;100286.91;;;23.49;31.12
58757;BME280;44527;47.460;19.016;2023-04-20T07:54:00;100273.66;;;22.74;33.54
58757;BME280;44527;47.460;19.016;2023-04-20T07:57:02;100277.53;;;21.79;34.88
58757;BME280;44527;47.460;19.016;2023-04-20T08:00:05;100282.25;;;21.69;34.77
58757;BME280;44527;47.460;19.016;2023-04-20T08:03:13;100276.50;;;21.01;36.74
58757;BME280;44527;47.460;19.016;2023-04-20T08:06:16;100275.00;;;20.41;36.55
58757;BME280;44527;47.460;19.016;2023-04-20T10:16:22;100244.13;;;19.23;40.62
58757;BME280;44527;47.460;19.016;2023-04-20T10:19:49;100234.00;;;18.92;39.81
58757;BME280;44527;47.460;19.016;2023-04-20T10:22:48;100230.22;;;19.03;40.53
58757;BME280;44527;47.460;19.016;2023-04-20T10:25:58;100230.87;;;19.39;41.10
58757;BME280;44527;47.460;19.016;2023-04-20T10:29:02;100228.53;;;19.95;39.22
58757;BME280;44527;47.460;19.016;2023-04-20T10:32:05;100225.81;;;19.70;39.29
58757;BME280;44527;47.460;19.016;2023-04-20T10:35:09;100226.94;;;19.60;38.32
58757;BME280;44527;47.460;19.016;2023-04-20T10:38:35;100228.56;;;19.52;39.02
58757;BME280;44527;47.460;19.016;2023-04-20T10:41:51;100227.84;;;19.85;40.13
58757;BME280;44527;47.460;19.016;2023-04-20T10:45:02;100214.69;;;19.83;40.59
58757;BME280;44527;47.460;19.016;2023-04-20T10:48:08;100209.53;;;19.82;37.18
58757;BME280;44527;47.460;19.016;2023-04-20T10:51:13;100203.91;;;20.26;38.68
58757;BME280;44527;47.460;19.016;2023-04-20T10:54:16;100205.88;;;20.40;38.42
58757;BME280;44527;47.460;19.016;2023-04-20T10:57:19;100207.88;;;19.89;39.53
58757;BME280;44527;47.460;19.016;2023-04-20T11:00:23;100201.22;;;19.68;37.62
58757;BME280;44527;47.460;19.016;2023-04-20T11:03:27;100209.63;;;19.56;38.78
58757;BME280;44527;47.460;19.016;2023-04-20T11:06:30;100191.38;;;19.77;37.44
58757;BME280;44527;47.460;19.016;2023-04-20T11:09:38;100192.72;;;19.89;40.60
58757;BME280;44527;47.460;19.016;2023-04-20T11:12:40;100186.91;;;20.10;38.84
58757;BME280;44527;47.460;19.016;2023-04-20T11:15:43;100194.72;;;20.20;38.54
58757;BME280;44527;47.460;19.016;2023-04-20T11:18:49;100189.06;;;19.82;39.77
58757;BME280;44527;47.460;19.016;2023-04-20T11:21:53;100192.59;;;19.99;39.53
58757;BME280;44527;47.460;19.016;2023-04-20T11:25:01;100198.56;;;20.09;39.70
58757;BME280;44527;47.460;19.016;2023-04-20T11:28:08;100187.75;;;19.94;37.98
58757;BME280;44527;47.460;19.016;2023-04-20T11:31:16;100180.41;;;19.88;38.75
58757;BME280;44527;47.460;19.016;2023-04-20T11:34:21;100179.25;;;20.15;38.32
58757;BME280;44527;47.460;19.016;2023-04-20T11:37:26;100179.56;;;20.45;37.29
58757;BME280;44527;47.460;19.016;2023-04-20T11:40:29;100180.72;;;20.59;36.68
58757;BME280;44527;47.460;19.016;2023-04-20T11:43:47;100179.53;;;20.70;40.17
58757;BME280;44527;47.460;19.016;2023-04-20T11:46:50;100173.25;;;20.54;37.82
58757;BME280;44527;47.460;19.016;2023-04-20T11:49:57;100176.72;;;20.38;36.29
58757;BME280;44527;47.460;19.016;2023-04-20T11:53:01;100173.06;;;20.31;40.48
58757;BME280;44527;47.460;19.016;2023-04-20T11:56:03;100159.59;;;20.33;35.98
58757;BME280;44527;47.460;19.016;2023-04-20T11:59:07;100171.91;;;20.58;36.28
58757;BME280;44527;47.460;19.016;2023-04-20T12:02:10;100164.38;;;20.62;35.37
58757;BME280;44527;47.460;19.016;2023-04-20T12:05:12;100170.75;;;20.53;37.09
58757;BME280;44527;47.460;19.016;2023-04-20T12:08:15;100163.91;;;20.42;37.50
58757;BME280;44527;47.460;19.016;2023-04-20T12:11:18;100161.88;;;20.69;36.26
58757;BME280;44527;47.460;19.016;2023-04-20T12:14:21;100161.63;;;20.86;33.33
58757;BME280;44527;47.460;19.016;2023-04-20T12:17:23;100159.88;;;21.10;36.00
58757;BME280;44527;47.460;19.016;2023-04-20T12:20:27;100155.28;;;20.87;34.25
58757;BME280;44527;47.460;19.016;2023-04-20T12:23:30;100161.50;;;20.88;35.88
58757;BME280;44527;47.460;19.016;2023-04-20T12:26:32;100152.13;;;20.92;34.51
58757;BME280;44527;47.460;19.016;2023-04-20T12:29:39;100157.88;;;20.73;34.70
58757;BME280;44527;47.460;19.016;2023-04-20T12:32:47;100155.59;;;20.29;34.92
58757;BME280;44527;47.460;19.016;2023-04-20T12:35:54;100156.88;;;20.49;35.78
58757;BME280;44527;47.460;19.016;2023-04-20T12:38:56;100143.22;;;20.44;34.57
58757;BME280;44527;47.460;19.016;2023-04-20T12:42:00;100148.75;;;20.34;37.06
58757;BME280;44527;47.460;19.016;2023-04-20T12:45:03;100138.75;;;20.36;34.50
58757;BME280;44527;47.460;19.016;2023-04-20T12:48:06;100142.37;;;20.60;32.80
58757;BME280;44527;47.460;19.016;2023-04-20T12:51:10;100133.47;;;20.84;33.72
58757;BME280;44527;47.460;19.016;2023-04-20T12:54:12;100127.59;;;20.97;31.69
58757;BME280;44527;47.460;19.016;2023-04-20T12:57:15;100127.97;;;20.85;33.34
58757;BME280;44527;47.460;19.016;2023-04-20T13:00:18;100129.19;;;20.75;32.56
58757;BME280;44527;47.460;19.016;2023-04-20T13:03:20;100124.28;;;20.86;32.09
58757;BME280;44527;47.460;19.016;2023-04-20T13:06:27;100133.53;;;20.76;31.65
58757;BME280;44527;47.460;19.016;2023-04-20T13:09:31;100128.34;;;20.74;33.79
58757;BME280;44527;47.460;19.016;2023-04-20T13:12:34;100130.69;;;20.69;31.87
58757;BME280;44527;47.460;19.016;2023-04-20T13:15:39;100117.69;;;20.66;32.12
58757;BME280;44527;47.460;19.016;2023-04-20T13:18:42;100120.56;;;20.64;33.45
58757;BME280;44527;47.460;19.016;2023-04-20T13:21:45;100113.59;;;20.55;31.87
58757;BME280;44527;47.460;19.016;2023-04-20T13:24:47;100110.06;;;20.47;30.70
58757;BME280;44527;47.460;19.016;2023-04-20T13:27:53;100106.91;;;20.59;30.60
58757;BME280;44527;47.460;19.016;2023-04-20T13:30:57;100116.25;;;21.03;31.44
58757;BME280;44527;47.460;19.016;2023-04-20T13:33:59;100107.34;;;21.42;30.95
58757;BME280;44527;47.460;19.016;2023-04-20T13:37:02;100107.16;;;21.66;30.76
58757;BME280;44527;47.460;19.016;2023-04-20T13:40:06;100113.50;;;21.88;31.45
58757;BME280;44527;47.460;19.016;2023-04-20T13:43:11;100115.06;;;21.60;30.54
58757;BME280;44527;47.460;19.016;2023-04-20T13:46:14;100110.56;;;21.29;30.50
58757;BME280;44527;47.460;19.016;2023-04-20T13:49:17;100102.84;;;21.11;32.21
58757;BME280;44527;47.460;19.016;2023-04-20T13:52:24;100101.91;;;20.96;30.27
58757;BME280;44527;47.460;19.016;2023-04-20T13:55:27;100112.72;;;21.02;32.76
58757;BME280;44527;47.460;19.016;2023-04-20T13:58:30;100102.13;;;21.17;32.30
58757;BME280;44527;47.460;19.016;2023-04-20T14:01:33;100090.72;;;21.00;31.34
58757;BME280;44527;47.460;19.016;2023-04-20T14:04:37;100099.69;;;21.07;33.34
58757;BME280;44527;47.460;19.016;2023-04-20T14:07:40;100094.47;;;21.14;32.92
58757;BME280;44527;47.460;19.016;2023-04-20T14:10:43;100099.53;;;20.70;33.23
58757;BME280;44527;47.460;19.016;2023-04-20T14:13:45;100091.25;;;20.56;33.48
58757;BME280;44527;47.460;19.016;2023-04-20T14:16:49;100082.59;;;20.38;32.42
58757;BME280;44527;47.460;19.016;2023-04-20T14:19:51;100082.03;;;20.11;31.32
58757;BME280;44527;47.460;19.016;2023-04-20T14:22:54;100078.34;;;20.04;33.79
58757;BME280;44527;47.460;19.016;2023-04-20T14:25:56;100082.38;;;20.08;33.43
58757;BME280;44527;47.460;19.016;2023-04-20T14:28:59;100081.53;;;20.00;33.89
58757;BME280;44527;47.460;19.016;2023-04-20T14:32:01;100069.88;;;19.92;35.01
58757;BME280;44527;47.460;19.016;2023-04-20T14:35:03;100068.88;;;20.02;32.79
58757;BME280;44527;47.460;19.016;2023-04-20T14:38:06;100074.03;;;19.95;32.44
58757;BME280;44527;47.460;19.016;2023-04-20T14:41:09;100059.88;;;19.86;33.26
58757;BME280;44527;47.460;19.016;2023-04-20T14:44:11;100068.22;;;19.83;32.04
58757;BME280;44527;47.460;19.016;2023-04-20T14:47:14;100067.56;;;19.73;34.06
58757;BME280;44527;47.460;19.016;2023-04-20T14:50:16;100062.56;;;19.45;32.42
58757;BME280;44527;47.460;19.016;2023-04-20T14:53:19;100059.06;;;19.45;33.69
58757;BME280;44527;47.460;19.016;2023-04-20T14:56:21;100065.19;;;19.62;36.22
58757;BME280;44527;47.460;19.016;2023-04-20T14:59:24;100062.59;;;19.70;34.17
58757;BME280;44527;47.460;19.016;2023-04-20T15:02:27;100056.25;;;19.63;33.27
58757;BME280;44527;47.460;19.016;2023-04-20T15:05:31;100047.09;;;19.41;33.35
58757;BME280;44527;47.460;19.016;2023-04-20T15:08:34;100056.53;;;19.43;34.22
58757;BME280;44527;47.460;19.016;2023-04-20T15:11:36;100056.56;;;19.51;33.37
58757;BME280;44527;47.460;19.016;2023-04-20T15:14:38;100053.38;;;19.40;35.11
58757;BME280;44527;47.460;19.016;2023-04-20T15:17:41;100056.53;;;19.43;36.03
58757;BME280;44527;47.460;19.016;2023-04-20T15:20:44;100052.88;;;19.52;34.41
58757;BME280;44527;47.460;19.016;2023-04-20T15:23:49;100053.56;;;19.55;36.63
58757;BME280;44527;47.460;19.016;2023-04-20T15:26:51;100060.22;;;19.59;36.66
58757;BME280;44527;47.460;19.016;2023-04-20T15:29:53;100062.38;;;19.63;34.37
58757;BME280;44527;47.460;19.016;2023-04-20T15:32:58;100055.28;;;19.72;35.19
58757;BME280;44527;47.460;19.016;2023-04-20T15:36:06;100061.53;;;19.95;34.91
58757;BME280;44527;47.460;19.016;2023-04-20T15:39:08;100061.53;;;19.95;34.16
58757;BME280;44527;47.460;19.016;2023-04-20T15:42:11;100058.06;;;20.03;33.35
58757;BME280;44527;47.460;19.016;2023-04-20T15:45:13;100055.19;;;20.13;35.44
58757;BME280;44527;47.460;19.016;2023-04-20T15:48:16;100054.37;;;20.12;33.09
58757;BME280;44527;47.460;19.016;2023-04-20T15:51:18;100058.16;;;20.26;33.16
58757;BME280;44527;47.460;19.016;2023-04-20T15:54:21;100066.00;;;20.28;35.28
58757;BME280;44527;47.460;19.016;2023-04-20T15:57:24;100060.19;;;20.08;36.10
58757;BME280;44527;47.460;19.016;2023-04-20T16:00:26;100054.75;;;19.93;34.19
58757;BME280;44527;47.460;19.016;2023-04-20T16:03:29;100058.38;;;19.92;36.79
58757;BME280;44527;47.460;19.016;2023-04-20T16:06:31;100055.59;;;19.69;35.44
58757;BME280;44527;47.460;19.016;2023-04-20T16:09:34;100069.03;;;19.43;36.78
58757;BME280;44527;47.460;19.016;2023-04-20T16:12:36;100063.69;;;19.10;40.00
58757;BME280;44527;47.460;19.016;2023-04-20T16:15:41;100076.28;;;18.92;40.09
58757;BME280;44527;47.460;19.016;2023-04-20T16:18:43;100066.47;;;18.58;42.35
58757;BME280;44527;47.460;19.016;2023-04-20T16:21:45;100063.19;;;18.64;44.34
58757;BME280;44527;47.460;19.016;2023-04-20T16:24:47;100067.22;;;18.42;43.85
58757;BME280;44527;47.460;19.016;2023-04-20T16:27:50;100077.50;;;18.37;45.50
58757;BME280;44527;47.460;19.016;2023-04-20T16:30:52;100067.75;;;18.20;46.00
58757;BME280;44527;47.460;19.016;2023-04-20T16:33:55;100071.78;;;17.98;45.01
58757;BME280;44527;47.460;19.016;2023-04-20T16:36:59;100076.72;;;17.92;46.05
58757;BME280;44527;47.460;19.016;2023-04-20T16:40:01;100078.25;;;17.77;46.19
58757;BME280;44527;47.460;19.016;2023-04-20T16:43:06;100082.19;;;17.73;45.99
58757;BME280;44527;47.460;19.016;2023-04-20T16:46:11;100086.44;;;17.66;46.02
58757;BME280;44527;47.460;19.016;2023-04-20T16:49:14;100087.91;;;17.60;47.63
58757;BME280;44527;47.460;19.016;2023-04-20T16:52:17;100094.94;;;17.52;48.50
58757;BME280;44527;47.460;19.016;2023-04-20T16:55:19;100088.56;;;17.44;47.49
58757;BME280;44527;47.460;19.016;2023-04-20T16:58:21;100091.47;;;17.33;49.00
58757;BME280;44527;47.460;19.016;2023-04-20T17:01:23;100079.84;;;17.16;47.76
58757;BME280;44527;47.460;19.016;2023-04-20T17:04:26;100090.53;;;17.25;47.90
58757;BME280;44527;47.460;19.016;2023-04-20T17:07:28;100092.97;;;17.18;47.25
58757;BME280;44527;47.460;19.016;2023-04-20T17:10:31;100089.78;;;17.14;47.59
58757;BME280;44527;47.460;19.016;2023-04-20T17:13:33;100097.63;;;17.06;49.67
58757;BME280;44527;47.460;19.016;2023-04-20T17:16:36;100100.72;;;17.02;50.30
58757;BME280;44527;47.460;19.016;2023-04-20T17:19:38;100109.31;;;16.86;51.69
58757;BME280;44527;47.460;19.016;2023-04-20T17:22:41;100114.81;;;16.65;49.75
58757;BME280;44527;47.460;19.016;2023-04-20T17:25:44;100109.50;;;16.74;51.90
58757;BME280;44527;47.460;19.016;2023-04-20T17:28:48;100110.94;;;16.69;51.61
58757;BME280;44527;47.460;19.016;2023-04-20T17:31:50;100110.09;;;16.59;51.57
58757;BME280;44527;47.460;19.016;2023-04-20T17:34:52;100114.03;;;16.54;52.76
58757;BME280;44527;47.460;19.016;2023-04-20T17:37:55;100126.03;;;16.49;53.89
58757;BME280;44527;47.460;19.016;2023-04-20T17:40:57;100125.78;;;16.42;53.87
58757;BME280;44527;47.460;19.016;2023-04-20T17:43:59;100125.13;;;16.30;54.57
58757;BME280;44527;47.460;19.016;2023-04-20T17:47:01;100128.87;;;16.28;53.92
58757;BME280;44527;47.460;19.016;2023-04-20T17:50:04;100133.66;;;16.24;55.68
58757;BME280;44527;47.460;19.016;2023-04-20T17:53:07;100127.25;;;16.17;53.62
58757;BME280;44527;47.460;19.016;2023-04-20T17:56:09;100130.31;;;16.22;53.66
58757;BME280;44527;47.460;19.016;2023-04-20T17:59:12;100128.78;;;16.20;52.63
58757;BME280;44527;47.460;19.016;2023-04-20T18:02:14;100134.63;;;16.23;53.23
58757;BME280;44527;47.460;19.016;2023-04-20T18:05:17;100134.09;;;16.20;53.39
58757;BME280;44527;47.460;19.016;2023-04-20T18:08:19;100131.72;;;16.17;54.80
58757;BME280;44527;47.460;19.016;2023-04-20T18:11:22;100143.69;;;16.21;54.36
58757;BME280;44527;47.460;19.016;2023-04-20T18:14:24;100145.53;;;16.11;55.25
58757;BME280;44527;47.460;19.016;2023-04-20T18:17:26;100159.16;;;16.16;53.92
58757;BME280;44527;47.460;19.016;2023-04-20T18:20:28;100162.53;;;16.08;54.02
58757;BME280;44527;47.460;19.016;2023-04-20T18:23:33;100166.16;;;15.97;55.11
58757;BME280;44527;47.460;19.016;2023-04-20T18:26:35;100165.47;;;15.95;54.85
58757;BME280;44527;47.460;19.016;2023-04-20T18:29:38;100169.78;;;15.96;56.28
58757;BME280;44527;47.460;19.016;2023-04-20T18:32:40;100177.00;;;15.94;56.24
58757;BME280;44527;47.460;19.016;2023-04-20T18:35:42;100180.78;;;16.01;54.47
58757;BME280;44527;47.460;19.016;2023-04-20T18:38:45;100185.25;;;16.01;54.26
58757;BME280;44527;47.460;19.016;2023-04-20T18:41:47;100189.56;;;16.02;55.60